<?xml version="1.0" encoding="UTF-8" standalone="no" ?>
<gpx xmlns="http://www.topografix.com/GPX/1/1" xmlns:xsi="http://www.w3.org/2001/XMLSchema-instance" xsi:schemaLocation="http://www.topografix.com/GPX/1/1 http://www.topografix.com/GPX/1/1/gpx.xsd" version="1.1" creator="VisuGPX - https://www.visugpx.com">
  <metadata>
    <name>Borgloon</name>
  </metadata>
  <trk>
    <name><![CDATA[Maps3D 2021-03-05 04-26pm]]></name>
    <trkseg>
      <trkpt lat="50.79865" lon="5.35046">
        <ele>106.007721</ele>
        <time>2021-03-05T12:14:32Z</time>
      </trkpt>
      <trkpt lat="50.79867" lon="5.34991">
        <ele>105.058716</ele>
        <time>2021-03-05T12:15:02Z</time>
      </trkpt>
      <trkpt lat="50.79857" lon="5.34945">
        <ele>106.010193</ele>
        <time>2021-03-05T12:15:33Z</time>
      </trkpt>
      <trkpt lat="50.79856" lon="5.34886">
        <ele>105.646851</ele>
        <time>2021-03-05T12:16:03Z</time>
      </trkpt>
      <trkpt lat="50.79845" lon="5.34846">
        <ele>106.263947</ele>
        <time>2021-03-05T12:16:48Z</time>
      </trkpt>
      <trkpt lat="50.79844" lon="5.34794">
        <ele>105.373993</ele>
        <time>2021-03-05T12:17:19Z</time>
      </trkpt>
      <trkpt lat="50.79844" lon="5.34733">
        <ele>104.150726</ele>
        <time>2021-03-05T12:17:49Z</time>
      </trkpt>
      <trkpt lat="50.79844" lon="5.34673">
        <ele>103.429626</ele>
        <time>2021-03-05T12:18:20Z</time>
      </trkpt>
      <trkpt lat="50.79848" lon="5.34632">
        <ele>100.012054</ele>
        <time>2021-03-05T12:19:09Z</time>
      </trkpt>
      <trkpt lat="50.79859" lon="5.34593">
        <ele>96.237801</ele>
        <time>2021-03-05T12:19:58Z</time>
      </trkpt>
      <trkpt lat="50.79863" lon="5.34551">
        <ele>92.625885</ele>
        <time>2021-03-05T12:20:43Z</time>
      </trkpt>
      <trkpt lat="50.79874" lon="5.34492">
        <ele>88.129395</ele>
        <time>2021-03-05T12:21:13Z</time>
      </trkpt>
      <trkpt lat="50.7987" lon="5.34435">
        <ele>85.566635</ele>
        <time>2021-03-05T12:21:44Z</time>
      </trkpt>
      <trkpt lat="50.79868" lon="5.3437">
        <ele>82.87394</ele>
        <time>2021-03-05T12:22:15Z</time>
      </trkpt>
      <trkpt lat="50.79839" lon="5.34393">
        <ele>82.173622</ele>
        <time>2021-03-05T12:22:45Z</time>
      </trkpt>
      <trkpt lat="50.79815" lon="5.34432">
        <ele>83.707596</ele>
        <time>2021-03-05T12:23:15Z</time>
      </trkpt>
      <trkpt lat="50.79786" lon="5.34465">
        <ele>85.641983</ele>
        <time>2021-03-05T12:23:46Z</time>
      </trkpt>
      <trkpt lat="50.79763" lon="5.34489">
        <ele>87.234879</ele>
        <time>2021-03-05T12:24:18Z</time>
      </trkpt>
      <trkpt lat="50.79734" lon="5.34502">
        <ele>88.981979</ele>
        <time>2021-03-05T12:24:48Z</time>
      </trkpt>
      <trkpt lat="50.7971" lon="5.34482">
        <ele>88.710159</ele>
        <time>2021-03-05T12:25:30Z</time>
      </trkpt>
      <trkpt lat="50.79686" lon="5.34453">
        <ele>88.143257</ele>
        <time>2021-03-05T12:26:00Z</time>
      </trkpt>
      <trkpt lat="50.79652" lon="5.34432">
        <ele>87.978783</ele>
        <time>2021-03-05T12:26:31Z</time>
      </trkpt>
      <trkpt lat="50.79633" lon="5.34462">
        <ele>89.246292</ele>
        <time>2021-03-05T12:27:12Z</time>
      </trkpt>
      <trkpt lat="50.79614" lon="5.34507">
        <ele>90.352524</ele>
        <time>2021-03-05T12:27:42Z</time>
      </trkpt>
      <trkpt lat="50.79586" lon="5.34551">
        <ele>90.382462</ele>
        <time>2021-03-05T12:28:13Z</time>
      </trkpt>
      <trkpt lat="50.7956" lon="5.34551">
        <ele>89.981033</ele>
        <time>2021-03-05T12:29:06Z</time>
      </trkpt>
      <trkpt lat="50.79525" lon="5.34545">
        <ele>89.644867</ele>
        <time>2021-03-05T12:29:36Z</time>
      </trkpt>
      <trkpt lat="50.79499" lon="5.34551">
        <ele>89.433136</ele>
        <time>2021-03-05T12:30:31Z</time>
      </trkpt>
      <trkpt lat="50.79462" lon="5.3455">
        <ele>90.782349</ele>
        <time>2021-03-05T12:31:01Z</time>
      </trkpt>
      <trkpt lat="50.79428" lon="5.34571">
        <ele>91.742493</ele>
        <time>2021-03-05T12:31:32Z</time>
      </trkpt>
      <trkpt lat="50.79385" lon="5.34569">
        <ele>94.321777</ele>
        <time>2021-03-05T12:32:03Z</time>
      </trkpt>
      <trkpt lat="50.79347" lon="5.34565">
        <ele>96.900558</ele>
        <time>2021-03-05T12:32:33Z</time>
      </trkpt>
      <trkpt lat="50.79309" lon="5.34566">
        <ele>98.477875</ele>
        <time>2021-03-05T12:33:03Z</time>
      </trkpt>
      <trkpt lat="50.79288" lon="5.34539">
        <ele>98.230927</ele>
        <time>2021-03-05T12:33:44Z</time>
      </trkpt>
      <trkpt lat="50.79264" lon="5.34558">
        <ele>99.430283</ele>
        <time>2021-03-05T12:34:18Z</time>
      </trkpt>
      <trkpt lat="50.79227" lon="5.3459">
        <ele>100.898293</ele>
        <time>2021-03-05T12:34:48Z</time>
      </trkpt>
      <trkpt lat="50.79194" lon="5.34632">
        <ele>103.327881</ele>
        <time>2021-03-05T12:35:19Z</time>
      </trkpt>
      <trkpt lat="50.79173" lon="5.34676">
        <ele>106.541847</ele>
        <time>2021-03-05T12:35:49Z</time>
      </trkpt>
      <trkpt lat="50.79152" lon="5.34703">
        <ele>106.910156</ele>
        <time>2021-03-05T12:36:42Z</time>
      </trkpt>
      <trkpt lat="50.79124" lon="5.34738">
        <ele>106.676361</ele>
        <time>2021-03-05T12:37:12Z</time>
      </trkpt>
      <trkpt lat="50.79105" lon="5.34768">
        <ele>107.059784</ele>
        <time>2021-03-05T12:37:57Z</time>
      </trkpt>
      <trkpt lat="50.79079" lon="5.34813">
        <ele>108.0895</ele>
        <time>2021-03-05T12:38:28Z</time>
      </trkpt>
      <trkpt lat="50.79058" lon="5.34857">
        <ele>107.322784</ele>
        <time>2021-03-05T12:38:58Z</time>
      </trkpt>
      <trkpt lat="50.79064" lon="5.34898">
        <ele>108.087296</ele>
        <time>2021-03-05T12:40:05Z</time>
      </trkpt>
      <trkpt lat="50.7905" lon="5.34862">
        <ele>106.506378</ele>
        <time>2021-03-05T12:41:09Z</time>
      </trkpt>
      <trkpt lat="50.79029" lon="5.34835">
        <ele>104.172775</ele>
        <time>2021-03-05T12:42:22Z</time>
      </trkpt>
      <trkpt lat="50.79033" lon="5.34793">
        <ele>101.95752</ele>
        <time>2021-03-05T12:42:52Z</time>
      </trkpt>
      <trkpt lat="50.7903" lon="5.34835">
        <ele>104.287369</ele>
        <time>2021-03-05T12:43:48Z</time>
      </trkpt>
      <trkpt lat="50.79052" lon="5.34879">
        <ele>106.826363</ele>
        <time>2021-03-05T12:44:19Z</time>
      </trkpt>
      <trkpt lat="50.79025" lon="5.34882">
        <ele>104.142235</ele>
        <time>2021-03-05T12:45:21Z</time>
      </trkpt>
      <trkpt lat="50.78993" lon="5.34849">
        <ele>100.490814</ele>
        <time>2021-03-05T12:45:51Z</time>
      </trkpt>
      <trkpt lat="50.78961" lon="5.34806">
        <ele>95.74292</ele>
        <time>2021-03-05T12:46:22Z</time>
      </trkpt>
      <trkpt lat="50.78933" lon="5.34758">
        <ele>92.130547</ele>
        <time>2021-03-05T12:46:53Z</time>
      </trkpt>
      <trkpt lat="50.78912" lon="5.34703">
        <ele>90.126305</ele>
        <time>2021-03-05T12:47:23Z</time>
      </trkpt>
      <trkpt lat="50.7889" lon="5.34647">
        <ele>87.317459</ele>
        <time>2021-03-05T12:47:53Z</time>
      </trkpt>
      <trkpt lat="50.78878" lon="5.3458">
        <ele>84.075745</ele>
        <time>2021-03-05T12:48:24Z</time>
      </trkpt>
      <trkpt lat="50.78871" lon="5.34519">
        <ele>82.328461</ele>
        <time>2021-03-05T12:48:55Z</time>
      </trkpt>
      <trkpt lat="50.78861" lon="5.34463">
        <ele>80.006927</ele>
        <time>2021-03-05T12:49:25Z</time>
      </trkpt>
      <trkpt lat="50.78841" lon="5.34407">
        <ele>76.938019</ele>
        <time>2021-03-05T12:49:56Z</time>
      </trkpt>
      <trkpt lat="50.78819" lon="5.34344">
        <ele>73.991936</ele>
        <time>2021-03-05T12:50:27Z</time>
      </trkpt>
      <trkpt lat="50.78794" lon="5.34306">
        <ele>73.075699</ele>
        <time>2021-03-05T12:50:58Z</time>
      </trkpt>
      <trkpt lat="50.78772" lon="5.34284">
        <ele>72.241089</ele>
        <time>2021-03-05T12:51:37Z</time>
      </trkpt>
      <trkpt lat="50.78738" lon="5.34263">
        <ele>70.870239</ele>
        <time>2021-03-05T12:52:08Z</time>
      </trkpt>
      <trkpt lat="50.78719" lon="5.34234">
        <ele>70.174767</ele>
        <time>2021-03-05T12:52:57Z</time>
      </trkpt>
      <trkpt lat="50.78698" lon="5.34185">
        <ele>69.254196</ele>
        <time>2021-03-05T12:53:27Z</time>
      </trkpt>
      <trkpt lat="50.78654" lon="5.34197">
        <ele>68.524994</ele>
        <time>2021-03-05T12:53:58Z</time>
      </trkpt>
      <trkpt lat="50.78612" lon="5.34211">
        <ele>69.179321</ele>
        <time>2021-03-05T12:54:28Z</time>
      </trkpt>
      <trkpt lat="50.78577" lon="5.34235">
        <ele>70.074776</ele>
        <time>2021-03-05T12:54:59Z</time>
      </trkpt>
      <trkpt lat="50.78542" lon="5.34258">
        <ele>71.598297</ele>
        <time>2021-03-05T12:55:30Z</time>
      </trkpt>
      <trkpt lat="50.78507" lon="5.34285">
        <ele>73.18045</ele>
        <time>2021-03-05T12:56:00Z</time>
      </trkpt>
      <trkpt lat="50.78472" lon="5.34319">
        <ele>75.183563</ele>
        <time>2021-03-05T12:56:31Z</time>
      </trkpt>
      <trkpt lat="50.78437" lon="5.34347">
        <ele>77.358826</ele>
        <time>2021-03-05T12:57:02Z</time>
      </trkpt>
      <trkpt lat="50.78402" lon="5.3437">
        <ele>79.504005</ele>
        <time>2021-03-05T12:57:32Z</time>
      </trkpt>
      <trkpt lat="50.78377" lon="5.34401">
        <ele>81.152634</ele>
        <time>2021-03-05T12:58:17Z</time>
      </trkpt>
      <trkpt lat="50.78341" lon="5.34431">
        <ele>83.100403</ele>
        <time>2021-03-05T12:58:48Z</time>
      </trkpt>
      <trkpt lat="50.78309" lon="5.34438">
        <ele>83.944794</ele>
        <time>2021-03-05T12:59:18Z</time>
      </trkpt>
      <trkpt lat="50.78275" lon="5.34449">
        <ele>84.631927</ele>
        <time>2021-03-05T12:59:48Z</time>
      </trkpt>
      <trkpt lat="50.78249" lon="5.34445">
        <ele>84.946045</ele>
        <time>2021-03-05T13:01:31Z</time>
      </trkpt>
      <trkpt lat="50.78211" lon="5.34438">
        <ele>83.353096</ele>
        <time>2021-03-05T13:02:01Z</time>
      </trkpt>
      <trkpt lat="50.78166" lon="5.34447">
        <ele>81.198761</ele>
        <time>2021-03-05T13:02:32Z</time>
      </trkpt>
      <trkpt lat="50.78124" lon="5.34446">
        <ele>78.383057</ele>
        <time>2021-03-05T13:03:02Z</time>
      </trkpt>
      <trkpt lat="50.78086" lon="5.34419">
        <ele>76.186546</ele>
        <time>2021-03-05T13:03:32Z</time>
      </trkpt>
      <trkpt lat="50.78048" lon="5.34394">
        <ele>73.849121</ele>
        <time>2021-03-05T13:04:04Z</time>
      </trkpt>
      <trkpt lat="50.78017" lon="5.34372">
        <ele>71.995483</ele>
        <time>2021-03-05T13:04:35Z</time>
      </trkpt>
      <trkpt lat="50.77996" lon="5.34315">
        <ele>70.552826</ele>
        <time>2021-03-05T13:05:06Z</time>
      </trkpt>
      <trkpt lat="50.77973" lon="5.34264">
        <ele>68.538025</ele>
        <time>2021-03-05T13:05:37Z</time>
      </trkpt>
      <trkpt lat="50.77961" lon="5.34223">
        <ele>67.674561</ele>
        <time>2021-03-05T13:06:08Z</time>
      </trkpt>
      <trkpt lat="50.77937" lon="5.34163">
        <ele>66.111221</ele>
        <time>2021-03-05T13:06:39Z</time>
      </trkpt>
      <trkpt lat="50.779" lon="5.34176">
        <ele>64.798035</ele>
        <time>2021-03-05T13:07:10Z</time>
      </trkpt>
      <trkpt lat="50.77869" lon="5.34132">
        <ele>64.073883</ele>
        <time>2021-03-05T13:07:41Z</time>
      </trkpt>
      <trkpt lat="50.77827" lon="5.34146">
        <ele>64.202614</ele>
        <time>2021-03-05T13:08:11Z</time>
      </trkpt>
      <trkpt lat="50.77814" lon="5.34209">
        <ele>64.586273</ele>
        <time>2021-03-05T13:08:42Z</time>
      </trkpt>
      <trkpt lat="50.77799" lon="5.34265">
        <ele>64.758606</ele>
        <time>2021-03-05T13:09:12Z</time>
      </trkpt>
      <trkpt lat="50.77797" lon="5.34329">
        <ele>64.465683</ele>
        <time>2021-03-05T13:09:43Z</time>
      </trkpt>
      <trkpt lat="50.77792" lon="5.34384">
        <ele>65.103668</ele>
        <time>2021-03-05T13:10:14Z</time>
      </trkpt>
      <trkpt lat="50.77782" lon="5.34428">
        <ele>65.79631</ele>
        <time>2021-03-05T13:10:45Z</time>
      </trkpt>
      <trkpt lat="50.7776" lon="5.34469">
        <ele>66.582741</ele>
        <time>2021-03-05T13:11:16Z</time>
      </trkpt>
      <trkpt lat="50.77776" lon="5.34502">
        <ele>67.047836</ele>
        <time>2021-03-05T13:11:47Z</time>
      </trkpt>
      <trkpt lat="50.77799" lon="5.34552">
        <ele>67.871857</ele>
        <time>2021-03-05T13:12:17Z</time>
      </trkpt>
      <trkpt lat="50.77827" lon="5.34598">
        <ele>68.271202</ele>
        <time>2021-03-05T13:12:48Z</time>
      </trkpt>
      <trkpt lat="50.77853" lon="5.34648">
        <ele>68.415878</ele>
        <time>2021-03-05T13:13:19Z</time>
      </trkpt>
      <trkpt lat="50.77877" lon="5.34698">
        <ele>68.346176</ele>
        <time>2021-03-05T13:13:50Z</time>
      </trkpt>
      <trkpt lat="50.77893" lon="5.34751">
        <ele>69.019272</ele>
        <time>2021-03-05T13:14:21Z</time>
      </trkpt>
      <trkpt lat="50.77898" lon="5.34807">
        <ele>70.216438</ele>
        <time>2021-03-05T13:14:51Z</time>
      </trkpt>
      <trkpt lat="50.77898" lon="5.34848">
        <ele>71.131714</ele>
        <time>2021-03-05T13:15:29Z</time>
      </trkpt>
      <trkpt lat="50.77898" lon="5.34912">
        <ele>72.674011</ele>
        <time>2021-03-05T13:16:00Z</time>
      </trkpt>
      <trkpt lat="50.77901" lon="5.34974">
        <ele>74.177185</ele>
        <time>2021-03-05T13:16:30Z</time>
      </trkpt>
      <trkpt lat="50.77902" lon="5.35037">
        <ele>74.829224</ele>
        <time>2021-03-05T13:17:01Z</time>
      </trkpt>
      <trkpt lat="50.77902" lon="5.351">
        <ele>74.856316</ele>
        <time>2021-03-05T13:17:31Z</time>
      </trkpt>
      <trkpt lat="50.77905" lon="5.35161">
        <ele>74.990143</ele>
        <time>2021-03-05T13:18:01Z</time>
      </trkpt>
      <trkpt lat="50.77906" lon="5.35224">
        <ele>75.685242</ele>
        <time>2021-03-05T13:18:32Z</time>
      </trkpt>
      <trkpt lat="50.77906" lon="5.35287">
        <ele>76.437531</ele>
        <time>2021-03-05T13:19:03Z</time>
      </trkpt>
      <trkpt lat="50.77907" lon="5.35352">
        <ele>77.052795</ele>
        <time>2021-03-05T13:19:34Z</time>
      </trkpt>
      <trkpt lat="50.77909" lon="5.35418">
        <ele>77.198471</ele>
        <time>2021-03-05T13:20:05Z</time>
      </trkpt>
      <trkpt lat="50.7791" lon="5.35484">
        <ele>77.305023</ele>
        <time>2021-03-05T13:20:39Z</time>
      </trkpt>
      <trkpt lat="50.77917" lon="5.3553">
        <ele>77.395737</ele>
        <time>2021-03-05T13:21:29Z</time>
      </trkpt>
      <trkpt lat="50.77885" lon="5.35549">
        <ele>79.095734</ele>
        <time>2021-03-05T13:21:59Z</time>
      </trkpt>
      <trkpt lat="50.77858" lon="5.35554">
        <ele>80.448151</ele>
        <time>2021-03-05T13:23:32Z</time>
      </trkpt>
      <trkpt lat="50.77833" lon="5.35567">
        <ele>81.813324</ele>
        <time>2021-03-05T13:24:18Z</time>
      </trkpt>
      <trkpt lat="50.77796" lon="5.35586">
        <ele>82.921051</ele>
        <time>2021-03-05T13:24:48Z</time>
      </trkpt>
      <trkpt lat="50.7776" lon="5.35602">
        <ele>83.994171</ele>
        <time>2021-03-05T13:25:18Z</time>
      </trkpt>
      <trkpt lat="50.77722" lon="5.3562">
        <ele>85.579178</ele>
        <time>2021-03-05T13:25:49Z</time>
      </trkpt>
      <trkpt lat="50.77687" lon="5.35644">
        <ele>87.557953</ele>
        <time>2021-03-05T13:26:20Z</time>
      </trkpt>
      <trkpt lat="50.77656" lon="5.35664">
        <ele>89.336487</ele>
        <time>2021-03-05T13:26:50Z</time>
      </trkpt>
      <trkpt lat="50.77619" lon="5.35691">
        <ele>90.554932</ele>
        <time>2021-03-05T13:27:21Z</time>
      </trkpt>
      <trkpt lat="50.77579" lon="5.35714">
        <ele>91.322319</ele>
        <time>2021-03-05T13:27:52Z</time>
      </trkpt>
      <trkpt lat="50.77539" lon="5.35721">
        <ele>90.101669</ele>
        <time>2021-03-05T13:28:22Z</time>
      </trkpt>
      <trkpt lat="50.77499" lon="5.35715">
        <ele>88.916496</ele>
        <time>2021-03-05T13:28:53Z</time>
      </trkpt>
      <trkpt lat="50.77459" lon="5.35705">
        <ele>85.742943</ele>
        <time>2021-03-05T13:29:23Z</time>
      </trkpt>
      <trkpt lat="50.77417" lon="5.35706">
        <ele>82.491081</ele>
        <time>2021-03-05T13:29:53Z</time>
      </trkpt>
      <trkpt lat="50.77374" lon="5.35706">
        <ele>80.921082</ele>
        <time>2021-03-05T13:30:23Z</time>
      </trkpt>
      <trkpt lat="50.77332" lon="5.35709">
        <ele>79.499931</ele>
        <time>2021-03-05T13:30:53Z</time>
      </trkpt>
      <trkpt lat="50.77292" lon="5.35714">
        <ele>79.284286</ele>
        <time>2021-03-05T13:31:24Z</time>
      </trkpt>
      <trkpt lat="50.77267" lon="5.35701">
        <ele>79.082771</ele>
        <time>2021-03-05T13:32:00Z</time>
      </trkpt>
      <trkpt lat="50.77242" lon="5.3565">
        <ele>78.034698</ele>
        <time>2021-03-05T13:32:31Z</time>
      </trkpt>
      <trkpt lat="50.77218" lon="5.35594">
        <ele>75.172737</ele>
        <time>2021-03-05T13:33:01Z</time>
      </trkpt>
      <trkpt lat="50.7717" lon="5.35611">
        <ele>73.802673</ele>
        <time>2021-03-05T13:33:32Z</time>
      </trkpt>
      <trkpt lat="50.77134" lon="5.35642">
        <ele>73.72406</ele>
        <time>2021-03-05T13:34:02Z</time>
      </trkpt>
      <trkpt lat="50.77095" lon="5.35665">
        <ele>73.258194</ele>
        <time>2021-03-05T13:34:33Z</time>
      </trkpt>
      <trkpt lat="50.77053" lon="5.35692">
        <ele>75.152237</ele>
        <time>2021-03-05T13:35:04Z</time>
      </trkpt>
      <trkpt lat="50.77024" lon="5.35738">
        <ele>77.893875</ele>
        <time>2021-03-05T13:35:35Z</time>
      </trkpt>
      <trkpt lat="50.77003" lon="5.35775">
        <ele>79.3237</ele>
        <time>2021-03-05T13:36:06Z</time>
      </trkpt>
      <trkpt lat="50.76982" lon="5.35803">
        <ele>79.919434</ele>
        <time>2021-03-05T13:36:40Z</time>
      </trkpt>
      <trkpt lat="50.76953" lon="5.35844">
        <ele>80.919495</ele>
        <time>2021-03-05T13:37:11Z</time>
      </trkpt>
      <trkpt lat="50.76929" lon="5.35892">
        <ele>82.460785</ele>
        <time>2021-03-05T13:37:41Z</time>
      </trkpt>
      <trkpt lat="50.76899" lon="5.35934">
        <ele>83.012817</ele>
        <time>2021-03-05T13:38:12Z</time>
      </trkpt>
      <trkpt lat="50.76868" lon="5.35979">
        <ele>83.64856</ele>
        <time>2021-03-05T13:38:42Z</time>
      </trkpt>
      <trkpt lat="50.76844" lon="5.36029">
        <ele>83.835999</ele>
        <time>2021-03-05T13:39:13Z</time>
      </trkpt>
      <trkpt lat="50.76826" lon="5.36077">
        <ele>83.50235</ele>
        <time>2021-03-05T13:39:44Z</time>
      </trkpt>
      <trkpt lat="50.76812" lon="5.36113">
        <ele>83.337112</ele>
        <time>2021-03-05T13:40:23Z</time>
      </trkpt>
      <trkpt lat="50.76792" lon="5.36167">
        <ele>83.012024</ele>
        <time>2021-03-05T13:40:54Z</time>
      </trkpt>
      <trkpt lat="50.76778" lon="5.36234">
        <ele>81.759262</ele>
        <time>2021-03-05T13:41:24Z</time>
      </trkpt>
      <trkpt lat="50.76767" lon="5.36272">
        <ele>80.935944</ele>
        <time>2021-03-05T13:42:23Z</time>
      </trkpt>
      <trkpt lat="50.76752" lon="5.36325">
        <ele>80.106705</ele>
        <time>2021-03-05T13:42:53Z</time>
      </trkpt>
      <trkpt lat="50.76738" lon="5.3636">
        <ele>80.04744</ele>
        <time>2021-03-05T13:43:34Z</time>
      </trkpt>
      <trkpt lat="50.76723" lon="5.36416">
        <ele>80.318779</ele>
        <time>2021-03-05T13:44:05Z</time>
      </trkpt>
      <trkpt lat="50.76707" lon="5.36471">
        <ele>80.525383</ele>
        <time>2021-03-05T13:44:35Z</time>
      </trkpt>
      <trkpt lat="50.76689" lon="5.36522">
        <ele>81.379974</ele>
        <time>2021-03-05T13:45:05Z</time>
      </trkpt>
      <trkpt lat="50.76678" lon="5.36576">
        <ele>82.406837</ele>
        <time>2021-03-05T13:45:42Z</time>
      </trkpt>
      <trkpt lat="50.76658" lon="5.36625">
        <ele>84.444153</ele>
        <time>2021-03-05T13:46:12Z</time>
      </trkpt>
      <trkpt lat="50.76632" lon="5.36681">
        <ele>86.671349</ele>
        <time>2021-03-05T13:46:43Z</time>
      </trkpt>
      <trkpt lat="50.76608" lon="5.3673">
        <ele>88.856712</ele>
        <time>2021-03-05T13:47:14Z</time>
      </trkpt>
      <trkpt lat="50.76587" lon="5.36778">
        <ele>90.917328</ele>
        <time>2021-03-05T13:47:45Z</time>
      </trkpt>
      <trkpt lat="50.76564" lon="5.36822">
        <ele>93.022903</ele>
        <time>2021-03-05T13:48:16Z</time>
      </trkpt>
      <trkpt lat="50.76538" lon="5.36875">
        <ele>92.738693</ele>
        <time>2021-03-05T13:48:47Z</time>
      </trkpt>
      <trkpt lat="50.76513" lon="5.36928">
        <ele>90.954887</ele>
        <time>2021-03-05T13:49:18Z</time>
      </trkpt>
      <trkpt lat="50.76495" lon="5.36971">
        <ele>88.897911</ele>
        <time>2021-03-05T13:49:49Z</time>
      </trkpt>
      <trkpt lat="50.7653" lon="5.3701">
        <ele>89.546936</ele>
        <time>2021-03-05T13:50:19Z</time>
      </trkpt>
      <trkpt lat="50.76557" lon="5.37049">
        <ele>91.320221</ele>
        <time>2021-03-05T13:50:50Z</time>
      </trkpt>
      <trkpt lat="50.76587" lon="5.37085">
        <ele>93.058899</ele>
        <time>2021-03-05T13:51:21Z</time>
      </trkpt>
      <trkpt lat="50.76615" lon="5.37128">
        <ele>93.918945</ele>
        <time>2021-03-05T13:51:52Z</time>
      </trkpt>
      <trkpt lat="50.76641" lon="5.3711">
        <ele>94.009705</ele>
        <time>2021-03-05T13:58:37Z</time>
      </trkpt>
      <trkpt lat="50.76669" lon="5.37083">
        <ele>93.872803</ele>
        <time>2021-03-05T13:59:07Z</time>
      </trkpt>
      <trkpt lat="50.76712" lon="5.37058">
        <ele>91.541504</ele>
        <time>2021-03-05T13:59:38Z</time>
      </trkpt>
      <trkpt lat="50.76708" lon="5.37006">
        <ele>91.108948</ele>
        <time>2021-03-05T14:00:11Z</time>
      </trkpt>
      <trkpt lat="50.76721" lon="5.3697">
        <ele>89.785431</ele>
        <time>2021-03-05T14:00:52Z</time>
      </trkpt>
      <trkpt lat="50.76763" lon="5.36956">
        <ele>87.180969</ele>
        <time>2021-03-05T14:01:23Z</time>
      </trkpt>
      <trkpt lat="50.76799" lon="5.36926">
        <ele>84.27655</ele>
        <time>2021-03-05T14:01:54Z</time>
      </trkpt>
      <trkpt lat="50.76813" lon="5.36967">
        <ele>84.432678</ele>
        <time>2021-03-05T14:02:24Z</time>
      </trkpt>
      <trkpt lat="50.76834" lon="5.37025">
        <ele>84.594315</ele>
        <time>2021-03-05T14:02:54Z</time>
      </trkpt>
      <trkpt lat="50.76853" lon="5.37075">
        <ele>85.352715</ele>
        <time>2021-03-05T14:03:24Z</time>
      </trkpt>
      <trkpt lat="50.7687" lon="5.37128">
        <ele>86.235641</ele>
        <time>2021-03-05T14:03:55Z</time>
      </trkpt>
      <trkpt lat="50.76882" lon="5.37165">
        <ele>86.633202</ele>
        <time>2021-03-05T14:04:42Z</time>
      </trkpt>
      <trkpt lat="50.76899" lon="5.37221">
        <ele>86.494232</ele>
        <time>2021-03-05T14:05:13Z</time>
      </trkpt>
      <trkpt lat="50.7692" lon="5.37278">
        <ele>86.638039</ele>
        <time>2021-03-05T14:05:44Z</time>
      </trkpt>
      <trkpt lat="50.76938" lon="5.37336">
        <ele>87.51693</ele>
        <time>2021-03-05T14:06:14Z</time>
      </trkpt>
      <trkpt lat="50.76956" lon="5.37368">
        <ele>87.649078</ele>
        <time>2021-03-05T14:08:30Z</time>
      </trkpt>
      <trkpt lat="50.76966" lon="5.37407">
        <ele>88.381844</ele>
        <time>2021-03-05T14:09:05Z</time>
      </trkpt>
      <trkpt lat="50.76983" lon="5.37457">
        <ele>90.419289</ele>
        <time>2021-03-05T14:09:36Z</time>
      </trkpt>
      <trkpt lat="50.77002" lon="5.37507">
        <ele>93.221283</ele>
        <time>2021-03-05T14:10:07Z</time>
      </trkpt>
      <trkpt lat="50.7702" lon="5.37561">
        <ele>94.759674</ele>
        <time>2021-03-05T14:10:38Z</time>
      </trkpt>
      <trkpt lat="50.77043" lon="5.37612">
        <ele>96.37925</ele>
        <time>2021-03-05T14:11:09Z</time>
      </trkpt>
      <trkpt lat="50.77061" lon="5.37668">
        <ele>98</ele>
        <time>2021-03-05T14:11:40Z</time>
      </trkpt>
      <trkpt lat="50.77098" lon="5.37684">
        <ele>98.305496</ele>
        <time>2021-03-05T14:12:10Z</time>
      </trkpt>
      <trkpt lat="50.77129" lon="5.37688">
        <ele>98.944107</ele>
        <time>2021-03-05T14:12:41Z</time>
      </trkpt>
      <trkpt lat="50.77155" lon="5.37695">
        <ele>99.426018</ele>
        <time>2021-03-05T14:13:32Z</time>
      </trkpt>
      <trkpt lat="50.77177" lon="5.37725">
        <ele>99.298859</ele>
        <time>2021-03-05T14:14:02Z</time>
      </trkpt>
      <trkpt lat="50.7721" lon="5.3776">
        <ele>98.813431</ele>
        <time>2021-03-05T14:14:32Z</time>
      </trkpt>
      <trkpt lat="50.77237" lon="5.37805">
        <ele>97.77607</ele>
        <time>2021-03-05T14:15:03Z</time>
      </trkpt>
      <trkpt lat="50.77273" lon="5.37836">
        <ele>97.28064</ele>
        <time>2021-03-05T14:15:33Z</time>
      </trkpt>
      <trkpt lat="50.7731" lon="5.37856">
        <ele>97.722656</ele>
        <time>2021-03-05T14:16:03Z</time>
      </trkpt>
      <trkpt lat="50.7735" lon="5.3786">
        <ele>97.798645</ele>
        <time>2021-03-05T14:16:34Z</time>
      </trkpt>
      <trkpt lat="50.77396" lon="5.37859">
        <ele>97.253601</ele>
        <time>2021-03-05T14:17:05Z</time>
      </trkpt>
      <trkpt lat="50.77436" lon="5.37862">
        <ele>96.530884</ele>
        <time>2021-03-05T14:17:36Z</time>
      </trkpt>
      <trkpt lat="50.77476" lon="5.3786">
        <ele>95.575439</ele>
        <time>2021-03-05T14:18:06Z</time>
      </trkpt>
      <trkpt lat="50.77516" lon="5.37858">
        <ele>94.8125</ele>
        <time>2021-03-05T14:18:37Z</time>
      </trkpt>
      <trkpt lat="50.77542" lon="5.37855">
        <ele>94.499939</ele>
        <time>2021-03-05T14:19:11Z</time>
      </trkpt>
      <trkpt lat="50.77582" lon="5.37853">
        <ele>94.01416</ele>
        <time>2021-03-05T14:19:41Z</time>
      </trkpt>
      <trkpt lat="50.77609" lon="5.37855">
        <ele>94.228424</ele>
        <time>2021-03-05T14:20:11Z</time>
      </trkpt>
      <trkpt lat="50.77636" lon="5.37855">
        <ele>94.469223</ele>
        <time>2021-03-05T14:21:05Z</time>
      </trkpt>
      <trkpt lat="50.77682" lon="5.37853">
        <ele>94.763885</ele>
        <time>2021-03-05T14:21:36Z</time>
      </trkpt>
      <trkpt lat="50.77723" lon="5.37851">
        <ele>94.784363</ele>
        <time>2021-03-05T14:22:06Z</time>
      </trkpt>
      <trkpt lat="50.77745" lon="5.37813">
        <ele>95.234177</ele>
        <time>2021-03-05T14:22:37Z</time>
      </trkpt>
      <trkpt lat="50.77756" lon="5.37747">
        <ele>96</ele>
        <time>2021-03-05T14:23:08Z</time>
      </trkpt>
      <trkpt lat="50.77766" lon="5.37683">
        <ele>96</ele>
        <time>2021-03-05T14:23:39Z</time>
      </trkpt>
      <trkpt lat="50.77773" lon="5.37623">
        <ele>97.438301</ele>
        <time>2021-03-05T14:24:10Z</time>
      </trkpt>
      <trkpt lat="50.77784" lon="5.3756">
        <ele>99.141907</ele>
        <time>2021-03-05T14:24:40Z</time>
      </trkpt>
      <trkpt lat="50.77795" lon="5.37499">
        <ele>100.497559</ele>
        <time>2021-03-05T14:25:11Z</time>
      </trkpt>
      <trkpt lat="50.77805" lon="5.37438">
        <ele>102.592621</ele>
        <time>2021-03-05T14:25:41Z</time>
      </trkpt>
      <trkpt lat="50.77821" lon="5.37381">
        <ele>104.003784</ele>
        <time>2021-03-05T14:26:13Z</time>
      </trkpt>
      <trkpt lat="50.77848" lon="5.37374">
        <ele>103.337585</ele>
        <time>2021-03-05T14:27:28Z</time>
      </trkpt>
      <trkpt lat="50.77879" lon="5.37416">
        <ele>101.352142</ele>
        <time>2021-03-05T14:27:58Z</time>
      </trkpt>
      <trkpt lat="50.77911" lon="5.37456">
        <ele>99.662964</ele>
        <time>2021-03-05T14:28:28Z</time>
      </trkpt>
      <trkpt lat="50.77953" lon="5.37463">
        <ele>97.491035</ele>
        <time>2021-03-05T14:28:58Z</time>
      </trkpt>
      <trkpt lat="50.77983" lon="5.37465">
        <ele>95.879158</ele>
        <time>2021-03-05T14:29:29Z</time>
      </trkpt>
      <trkpt lat="50.7801" lon="5.37465">
        <ele>94.554794</ele>
        <time>2021-03-05T14:30:49Z</time>
      </trkpt>
      <trkpt lat="50.78055" lon="5.37461">
        <ele>92.653214</ele>
        <time>2021-03-05T14:31:20Z</time>
      </trkpt>
      <trkpt lat="50.7809" lon="5.3746">
        <ele>91.327972</ele>
        <time>2021-03-05T14:31:50Z</time>
      </trkpt>
      <trkpt lat="50.7812" lon="5.37461">
        <ele>90.607811</ele>
        <time>2021-03-05T14:32:20Z</time>
      </trkpt>
      <trkpt lat="50.78118" lon="5.37419">
        <ele>90.748413</ele>
        <time>2021-03-05T14:35:17Z</time>
      </trkpt>
      <trkpt lat="50.78087" lon="5.37372">
        <ele>91.882812</ele>
        <time>2021-03-05T14:35:47Z</time>
      </trkpt>
      <trkpt lat="50.78062" lon="5.3732">
        <ele>92.93338</ele>
        <time>2021-03-05T14:36:17Z</time>
      </trkpt>
      <trkpt lat="50.78038" lon="5.37268">
        <ele>94.425659</ele>
        <time>2021-03-05T14:36:47Z</time>
      </trkpt>
      <trkpt lat="50.78013" lon="5.37216">
        <ele>95.596497</ele>
        <time>2021-03-05T14:37:18Z</time>
      </trkpt>
      <trkpt lat="50.77992" lon="5.37162">
        <ele>96.342819</ele>
        <time>2021-03-05T14:37:48Z</time>
      </trkpt>
      <trkpt lat="50.77995" lon="5.37121">
        <ele>95.640511</ele>
        <time>2021-03-05T14:38:28Z</time>
      </trkpt>
      <trkpt lat="50.78025" lon="5.37072">
        <ele>94.901115</ele>
        <time>2021-03-05T14:38:58Z</time>
      </trkpt>
      <trkpt lat="50.78057" lon="5.37025">
        <ele>94.775154</ele>
        <time>2021-03-05T14:39:29Z</time>
      </trkpt>
      <trkpt lat="50.78085" lon="5.36975">
        <ele>95.319611</ele>
        <time>2021-03-05T14:40:00Z</time>
      </trkpt>
      <trkpt lat="50.78116" lon="5.36923">
        <ele>96.672714</ele>
        <time>2021-03-05T14:40:31Z</time>
      </trkpt>
      <trkpt lat="50.78141" lon="5.36872">
        <ele>98.302429</ele>
        <time>2021-03-05T14:41:01Z</time>
      </trkpt>
      <trkpt lat="50.78171" lon="5.36826">
        <ele>100.467232</ele>
        <time>2021-03-05T14:41:32Z</time>
      </trkpt>
      <trkpt lat="50.78207" lon="5.36791">
        <ele>103.235947</ele>
        <time>2021-03-05T14:42:03Z</time>
      </trkpt>
      <trkpt lat="50.78232" lon="5.36754">
        <ele>106.149323</ele>
        <time>2021-03-05T14:42:33Z</time>
      </trkpt>
      <trkpt lat="50.78259" lon="5.3672">
        <ele>108.49427</ele>
        <time>2021-03-05T14:43:04Z</time>
      </trkpt>
      <trkpt lat="50.78287" lon="5.36675">
        <ele>110.643265</ele>
        <time>2021-03-05T14:43:34Z</time>
      </trkpt>
      <trkpt lat="50.78311" lon="5.36644">
        <ele>112.311737</ele>
        <time>2021-03-05T14:44:05Z</time>
      </trkpt>
      <trkpt lat="50.7833" lon="5.36591">
        <ele>115.481064</ele>
        <time>2021-03-05T14:44:35Z</time>
      </trkpt>
      <trkpt lat="50.78353" lon="5.36544">
        <ele>117.352348</ele>
        <time>2021-03-05T14:45:06Z</time>
      </trkpt>
      <trkpt lat="50.78374" lon="5.36488">
        <ele>118.144989</ele>
        <time>2021-03-05T14:45:37Z</time>
      </trkpt>
      <trkpt lat="50.78402" lon="5.36437">
        <ele>116.221207</ele>
        <time>2021-03-05T14:46:08Z</time>
      </trkpt>
      <trkpt lat="50.78421" lon="5.36376">
        <ele>114.67717</ele>
        <time>2021-03-05T14:46:38Z</time>
      </trkpt>
      <trkpt lat="50.78448" lon="5.36317">
        <ele>111.292625</ele>
        <time>2021-03-05T14:47:09Z</time>
      </trkpt>
      <trkpt lat="50.78472" lon="5.36264">
        <ele>107.761368</ele>
        <time>2021-03-05T14:47:39Z</time>
      </trkpt>
      <trkpt lat="50.78496" lon="5.36207">
        <ele>106.098892</ele>
        <time>2021-03-05T14:48:10Z</time>
      </trkpt>
      <trkpt lat="50.78518" lon="5.36165">
        <ele>105.576782</ele>
        <time>2021-03-05T14:48:40Z</time>
      </trkpt>
      <trkpt lat="50.78534" lon="5.36133">
        <ele>105.188721</ele>
        <time>2021-03-05T14:49:21Z</time>
      </trkpt>
      <trkpt lat="50.78572" lon="5.36099">
        <ele>104.262329</ele>
        <time>2021-03-05T14:49:52Z</time>
      </trkpt>
      <trkpt lat="50.78612" lon="5.36069">
        <ele>103.717346</ele>
        <time>2021-03-05T14:50:23Z</time>
      </trkpt>
      <trkpt lat="50.7865" lon="5.36038">
        <ele>103.629433</ele>
        <time>2021-03-05T14:50:53Z</time>
      </trkpt>
      <trkpt lat="50.78674" lon="5.36018">
        <ele>103.942657</ele>
        <time>2021-03-05T14:51:25Z</time>
      </trkpt>
      <trkpt lat="50.78714" lon="5.35991">
        <ele>105.146767</ele>
        <time>2021-03-05T14:51:56Z</time>
      </trkpt>
      <trkpt lat="50.78755" lon="5.35961">
        <ele>106.627899</ele>
        <time>2021-03-05T14:52:26Z</time>
      </trkpt>
      <trkpt lat="50.78797" lon="5.35939">
        <ele>108.430054</ele>
        <time>2021-03-05T14:52:57Z</time>
      </trkpt>
      <trkpt lat="50.78839" lon="5.35936">
        <ele>109.822784</ele>
        <time>2021-03-05T14:53:28Z</time>
      </trkpt>
      <trkpt lat="50.78876" lon="5.35906">
        <ele>110.641052</ele>
        <time>2021-03-05T14:53:59Z</time>
      </trkpt>
      <trkpt lat="50.78898" lon="5.35856">
        <ele>111.505676</ele>
        <time>2021-03-05T14:54:29Z</time>
      </trkpt>
      <trkpt lat="50.78919" lon="5.35807">
        <ele>112.236664</ele>
        <time>2021-03-05T14:55:00Z</time>
      </trkpt>
      <trkpt lat="50.78948" lon="5.35765">
        <ele>111.696045</ele>
        <time>2021-03-05T14:55:30Z</time>
      </trkpt>
      <trkpt lat="50.78971" lon="5.35707">
        <ele>111.554474</ele>
        <time>2021-03-05T14:56:01Z</time>
      </trkpt>
      <trkpt lat="50.78993" lon="5.35648">
        <ele>111.874268</ele>
        <time>2021-03-05T14:56:31Z</time>
      </trkpt>
      <trkpt lat="50.7901" lon="5.35613">
        <ele>112.754837</ele>
        <time>2021-03-05T14:57:02Z</time>
      </trkpt>
      <trkpt lat="50.79044" lon="5.35586">
        <ele>113.34343</ele>
        <time>2021-03-05T14:57:42Z</time>
      </trkpt>
      <trkpt lat="50.79071" lon="5.35581">
        <ele>113.229507</ele>
        <time>2021-03-05T14:59:14Z</time>
      </trkpt>
      <trkpt lat="50.79108" lon="5.35575">
        <ele>114.141235</ele>
        <time>2021-03-05T14:59:44Z</time>
      </trkpt>
      <trkpt lat="50.7915" lon="5.35557">
        <ele>116.098495</ele>
        <time>2021-03-05T15:00:15Z</time>
      </trkpt>
      <trkpt lat="50.79187" lon="5.35531">
        <ele>117.745117</ele>
        <time>2021-03-05T15:00:46Z</time>
      </trkpt>
      <trkpt lat="50.79216" lon="5.3552">
        <ele>118.701904</ele>
        <time>2021-03-05T15:01:16Z</time>
      </trkpt>
      <trkpt lat="50.79251" lon="5.35496">
        <ele>120.047157</ele>
        <time>2021-03-05T15:01:46Z</time>
      </trkpt>
      <trkpt lat="50.79294" lon="5.3547">
        <ele>120.543991</ele>
        <time>2021-03-05T15:02:17Z</time>
      </trkpt>
      <trkpt lat="50.79334" lon="5.35464">
        <ele>120.844261</ele>
        <time>2021-03-05T15:02:47Z</time>
      </trkpt>
      <trkpt lat="50.79361" lon="5.35467">
        <ele>119.926109</ele>
        <time>2021-03-05T15:03:37Z</time>
      </trkpt>
      <trkpt lat="50.79402" lon="5.35461">
        <ele>118.84581</ele>
        <time>2021-03-05T15:04:08Z</time>
      </trkpt>
      <trkpt lat="50.79398" lon="5.35412">
        <ele>120.551491</ele>
        <time>2021-03-05T15:04:39Z</time>
      </trkpt>
      <trkpt lat="50.79364" lon="5.35361">
        <ele>122.185081</ele>
        <time>2021-03-05T15:05:09Z</time>
      </trkpt>
      <trkpt lat="50.79327" lon="5.35314">
        <ele>122.71405</ele>
        <time>2021-03-05T15:05:40Z</time>
      </trkpt>
      <trkpt lat="50.79306" lon="5.35279">
        <ele>122.234726</ele>
        <time>2021-03-05T15:06:10Z</time>
      </trkpt>
      <trkpt lat="50.79341" lon="5.35256">
        <ele>121.902374</ele>
        <time>2021-03-05T15:06:46Z</time>
      </trkpt>
      <trkpt lat="50.79381" lon="5.35233">
        <ele>120.530121</ele>
        <time>2021-03-05T15:07:16Z</time>
      </trkpt>
      <trkpt lat="50.79412" lon="5.35213">
        <ele>119.264336</ele>
        <time>2021-03-05T15:07:51Z</time>
      </trkpt>
      <trkpt lat="50.7943" lon="5.35182">
        <ele>118.37738</ele>
        <time>2021-03-05T15:08:52Z</time>
      </trkpt>
      <trkpt lat="50.79411" lon="5.35153">
        <ele>117.121162</ele>
        <time>2021-03-05T15:10:33Z</time>
      </trkpt>
      <trkpt lat="50.79423" lon="5.3519">
        <ele>118.555481</ele>
        <time>2021-03-05T15:14:40Z</time>
      </trkpt>
      <trkpt lat="50.79449" lon="5.35176">
        <ele>118.226196</ele>
        <time>2021-03-05T15:15:25Z</time>
      </trkpt>
      <trkpt lat="50.79479" lon="5.35169">
        <ele>118.057312</ele>
        <time>2021-03-05T15:15:55Z</time>
      </trkpt>
      <trkpt lat="50.79516" lon="5.35149">
        <ele>116.638374</ele>
        <time>2021-03-05T15:16:26Z</time>
      </trkpt>
      <trkpt lat="50.79543" lon="5.35134">
        <ele>115.723633</ele>
        <time>2021-03-05T15:18:23Z</time>
      </trkpt>
      <trkpt lat="50.79577" lon="5.3511">
        <ele>114.898743</ele>
        <time>2021-03-05T15:18:53Z</time>
      </trkpt>
      <trkpt lat="50.79615" lon="5.35091">
        <ele>114.19397</ele>
        <time>2021-03-05T15:19:23Z</time>
      </trkpt>
      <trkpt lat="50.79651" lon="5.35081">
        <ele>113.989685</ele>
        <time>2021-03-05T15:19:53Z</time>
      </trkpt>
      <trkpt lat="50.79693" lon="5.35055">
        <ele>113.578629</ele>
        <time>2021-03-05T15:20:24Z</time>
      </trkpt>
      <trkpt lat="50.79733" lon="5.35029">
        <ele>112.690117</ele>
        <time>2021-03-05T15:20:54Z</time>
      </trkpt>
      <trkpt lat="50.79773" lon="5.35001">
        <ele>111.447998</ele>
        <time>2021-03-05T15:21:25Z</time>
      </trkpt>
      <trkpt lat="50.79812" lon="5.34991">
        <ele>110.288452</ele>
        <time>2021-03-05T15:21:55Z</time>
      </trkpt>
      <trkpt lat="50.79847" lon="5.34961">
        <ele>107.364594</ele>
        <time>2021-03-05T15:22:26Z</time>
      </trkpt>
      <trkpt lat="50.7986" lon="5.34897">
        <ele>105.391953</ele>
        <time>2021-03-05T15:22:57Z</time>
      </trkpt>
      <trkpt lat="50.79853" lon="5.34955">
        <ele>106.636215</ele>
        <time>2021-03-05T15:23:28Z</time>
      </trkpt>
      <trkpt lat="50.79863" lon="5.35006">
        <ele>105.753235</ele>
        <time>2021-03-05T15:23:58Z</time>
      </trkpt>
      <trkpt lat="50.79859" lon="5.35062">
        <ele>107.045959</ele>
        <time>2021-03-05T15:24:29Z</time>
      </trkpt>
    </trkseg>
  </trk>
</gpx>